Aérodrome :
LOGIN :

S'inscrire | Disclaimer

   EN    FR    IT 

 










Légende :    VFR   VFR Marginal   IFR   IFR Intensif   IFR Très Intensif
Visi : 
Plafond : 
>= 8 km
>= 3000ft
5 à 8 km
1000 à 3000 ft
1500m à 5 km
500 à 1000 ft
800 à 1500m
200 à 500 ft
< 800m
< 200 ft
Symboles :   Orages  Brouillard  Fortes neiges  Fortes précipitations  Vent > 20 kt
SIGMETs :   Divers  Orages  Givrage  Turbulence  Onde Orograph.  Cendres Volcan.






- Altitude de l'aérodrome : 183 ft
- Code IATA : HAJ


EDDV - Hanover/Langenhagen Int.

DERNIER METAR :
  • 192020Z 25017KT 9999 -RA BKN010 08/07 Q1004 TEMPO 25020G30KT BKN009

METARs EXPIRÉS :
  • 191950Z 25015KT 9999 -RA BKN010 09/07 Q1003 TEMPO 25020G30KT BKN009
  • 191920Z 25017G28KT 9999 -RA BKN011 09/08 Q1003 TEMPO 25020G30KT BKN009
  • 191850Z 25015KT 9999 BKN012 09/08 Q1003 TEMPO 25015G25KT 4500 -RADZ BKN009
  • 191820Z 25016G26KT 9999 -RADZ BKN009 09/08 Q1002 TEMPO 4500 BKN010
  • 191750Z 25017KT 8000 -RADZ BKN008 BKN010 08/08 Q1002 TEMPO 4500 BKN010

TAF TAF EDDV
Valide du 19 à 18h jusqu'au 20 à 18h UTC


191700Z 1918/2018 22012KT 9999 BKN010
TEMPO 1918/2015 22015G25KT
TEMPO 1918/1920 3500 RADZ BKN008
TEMPO 1920/1923 BKN009
BECMG 1922/2001 SCT035



MET'MAP, la Météo Aéronautique d'un coup d'oeil ! - Copyright ORBIFLY Décembre 2007 - Disclaimer

ORBIFLY MET'MAP TEAM :

Programmation & Développement : Alexandra Zaïnal
Sur une idée originale de : Baudouin d'Aumeries
Assistance à la programmation : Marc-Olivier Méhu
Soutien technique & logistique : Manuel Goepfert

Contact : metmap@orbifly.com




SOURCES & CREDITS :

   NOAA